首页
METAR-TAF:

METAR-TAF

机场 :

斯利那加機場

斯利那加, 印度

纬度: 33-59-14N, 经度: 074-46-27E, 海拔: 1655米

METAR: 丢失

时间: 01:50 (20:20 UTC)

预报

该预报发布于10小时和50分钟前的09:30 UTC
预报有效从07日的 12点(UTC)到 07日的 24点(UTC)
风速8节,风向西南
能見度: 6000
散云层高于1800英尺
少量云层高于3000英尺, 积雨云.
多云层高于9000英尺
短暂存在
从 07日的 14点(UTC)到 07日的 16点(UTC)
风速15节,风向西南,有时为25节阵风
散云层高于2000英尺
少量云层高于2500英尺, 积雨云.
多云层高于9000英尺
雷暴, 雨

TAF: VISR 070930Z 0712/0724 22008KT 6000 RA SCT018 FEW030CB BKN090 TEMPO 0714/0716 22015G25KT TSRA SCT020 FEW025CB BKN090

超过4000个机场的气象观测和天气预报(METAR&TAF报告)。

可查询的气象台以黄色和红色小点在地图上表示。

将鼠标移到小点上方,可查看气象台名称。

然后点击查看天气观测和预报。

如需切换地图:点击带黑十字的绿色按钮放大地图;点击带横线的绿色按钮缩小地图;或者点击绿色箭头查看邻近地区的地图。


METAR-TAF: